sensor_id;sensor_type;location;lat;lon;timestamp;pressure;altitude;pressure_sealevel;temperature;humidity
33949;BME280;20229;49.856;19.030;2023-05-12T00:03:47;101690.67;;;8.88;70.49
33949;BME280;20229;49.856;19.030;2023-05-12T00:09:02;101688.34;;;8.76;70.94
33949;BME280;20229;49.856;19.030;2023-05-12T00:14:16;101694.14;;;8.65;71.02
33949;BME280;20229;49.856;19.030;2023-05-12T00:19:30;101696.23;;;8.57;71.93
33949;BME280;20229;49.856;19.030;2023-05-12T00:24:44;101701.07;;;8.47;71.88
33949;BME280;20229;49.856;19.030;2023-05-12T00:29:59;101700.48;;;8.36;72.39
33949;BME280;20229;49.856;19.030;2023-05-12T00:35:12;101695.39;;;8.25;73.31
33949;BME280;20229;49.856;19.030;2023-05-12T00:40:28;101696.66;;;8.13;72.38
33949;BME280;20229;49.856;19.030;2023-05-12T00:45:42;101705.06;;;8.06;73.22
33949;BME280;20229;49.856;19.030;2023-05-12T00:50:57;101701.81;;;7.93;73.92
33949;BME280;20229;49.856;19.030;2023-05-12T00:56:12;101699.34;;;7.84;73.50
33949;BME280;20229;49.856;19.030;2023-05-12T01:01:26;101693.26;;;7.76;72.03
33949;BME280;20229;49.856;19.030;2023-05-12T01:06:46;101701.66;;;7.66;74.68
33949;BME280;20229;49.856;19.030;2023-05-12T01:12:01;101700.98;;;7.60;74.50
33949;BME280;20229;49.856;19.030;2023-05-12T01:17:19;101714.73;;;7.52;76.59
33949;BME280;20229;49.856;19.030;2023-05-12T01:22:34;101713.24;;;7.42;76.65
33949;BME280;20229;49.856;19.030;2023-05-12T01:27:49;101700.84;;;7.32;76.64
33949;BME280;20229;49.856;19.030;2023-05-12T01:33:05;101713.78;;;7.21;76.45
33949;BME280;20229;49.856;19.030;2023-05-12T01:38:19;101708.54;;;7.14;76.74
33949;BME280;20229;49.856;19.030;2023-05-12T01:43:33;101709.59;;;7.09;76.40
33949;BME280;20229;49.856;19.030;2023-05-12T01:48:46;101709.78;;;7.01;76.87
33949;BME280;20229;49.856;19.030;2023-05-12T01:54:00;101705.52;;;6.91;76.93
33949;BME280;20229;49.856;19.030;2023-05-12T01:59:14;101710.19;;;6.86;76.56
33949;BME280;20229;49.856;19.030;2023-05-12T02:04:28;101714.90;;;6.78;76.98
33949;BME280;20229;49.856;19.030;2023-05-12T02:09:42;101712.37;;;6.70;77.99
33949;BME280;20229;49.856;19.030;2023-05-12T02:14:55;101717.17;;;6.59;78.57
33949;BME280;20229;49.856;19.030;2023-05-12T02:20:10;101718.26;;;6.50;77.93
33949;BME280;20229;49.856;19.030;2023-05-12T02:25:24;101721.20;;;6.41;80.16
33949;BME280;20229;49.856;19.030;2023-05-12T02:30:43;101725.88;;;6.34;78.83
33949;BME280;20229;49.856;19.030;2023-05-12T02:35:57;101721.47;;;6.29;79.00
33949;BME280;20229;49.856;19.030;2023-05-12T02:41:11;101728.87;;;6.22;79.30
33949;BME280;20229;49.856;19.030;2023-05-12T02:46:25;101724.58;;;6.12;79.11
33949;BME280;20229;49.856;19.030;2023-05-12T02:51:39;101724.70;;;6.06;79.63
33949;BME280;20229;49.856;19.030;2023-05-12T02:56:52;101730.23;;;6.01;80.23
33949;BME280;20229;49.856;19.030;2023-05-12T03:02:08;101733.84;;;6.00;79.79
33949;BME280;20229;49.856;19.030;2023-05-12T03:07:22;101729.35;;;5.99;79.81
33949;BME280;20229;49.856;19.030;2023-05-12T03:12:37;101725.76;;;5.98;80.05
33949;BME280;20229;49.856;19.030;2023-05-12T03:17:51;101723.05;;;5.98;80.39
33949;BME280;20229;49.856;19.030;2023-05-12T03:23:04;101722.17;;;5.98;80.69
33949;BME280;20229;49.856;19.030;2023-05-12T03:28:18;101724.87;;;5.98;80.68
33949;BME280;20229;49.856;19.030;2023-05-12T03:33:32;101722.98;;;6.02;80.73
33949;BME280;20229;49.856;19.030;2023-05-12T03:38:47;101728.35;;;6.05;80.99
33949;BME280;20229;49.856;19.030;2023-05-12T03:44:01;101725.46;;;6.12;80.70
33949;BME280;20229;49.856;19.030;2023-05-12T03:49:15;101728.95;;;6.19;81.11
33949;BME280;20229;49.856;19.030;2023-05-12T03:54:28;101733.26;;;6.28;81.37
33949;BME280;20229;49.856;19.030;2023-05-12T03:59:43;101726.74;;;6.36;80.88
33949;BME280;20229;49.856;19.030;2023-05-12T04:04:57;101730.05;;;6.49;81.40
33949;BME280;20229;49.856;19.030;2023-05-12T04:10:10;101728.89;;;6.61;81.56
33949;BME280;20229;49.856;19.030;2023-05-12T04:15:25;101724.05;;;6.74;81.12
33949;BME280;20229;49.856;19.030;2023-05-12T04:20:39;101728.20;;;6.88;81.36
33949;BME280;20229;49.856;19.030;2023-05-12T04:25:53;101733.19;;;7.07;81.37
33949;BME280;20229;49.856;19.030;2023-05-12T04:31:07;101748.11;;;7.25;80.57
33949;BME280;20229;49.856;19.030;2023-05-12T04:36:21;101738.37;;;7.50;81.09
33949;BME280;20229;49.856;19.030;2023-05-12T04:41:37;101737.85;;;7.69;78.69
33949;BME280;20229;49.856;19.030;2023-05-12T04:46:51;101739.79;;;7.96;78.37
33949;BME280;20229;49.856;19.030;2023-05-12T04:52:08;101742.67;;;8.21;78.70
33949;BME280;20229;49.856;19.030;2023-05-12T04:57:23;101744.58;;;8.49;78.96
33949;BME280;20229;49.856;19.030;2023-05-12T05:02:36;101741.97;;;8.74;76.53
33949;BME280;20229;49.856;19.030;2023-05-12T05:07:51;101749.08;;;9.06;77.18
33949;BME280;20229;49.856;19.030;2023-05-12T05:13:06;101746.91;;;9.42;76.30
33949;BME280;20229;49.856;19.030;2023-05-12T05:18:20;101748.56;;;10.21;74.22
33949;BME280;20229;49.856;19.030;2023-05-12T05:23:34;101739.48;;;11.12;71.38
33949;BME280;20229;49.856;19.030;2023-05-12T05:28:48;101734.98;;;12.33;64.78
33949;BME280;20229;49.856;19.030;2023-05-12T05:34:07;101728.70;;;16.41;58.67
33949;BME280;20229;49.856;19.030;2023-05-12T05:39:21;101725.99;;;20.88;42.63
33949;BME280;20229;49.856;19.030;2023-05-12T05:44:36;101717.53;;;23.30;38.65
33949;BME280;20229;49.856;19.030;2023-05-12T05:49:50;101717.64;;;25.81;31.12
33949;BME280;20229;49.856;19.030;2023-05-12T05:55:04;101723.66;;;27.65;33.13
33949;BME280;20229;49.856;19.030;2023-05-12T06:00:18;101728.92;;;29.06;27.53
33949;BME280;20229;49.856;19.030;2023-05-12T06:05:32;101722.83;;;30.70;27.92
33949;BME280;20229;49.856;19.030;2023-05-12T06:10:46;101718.96;;;32.16;25.36
33949;BME280;20229;49.856;19.030;2023-05-12T06:16:00;101722.07;;;32.84;24.24
33949;BME280;20229;49.856;19.030;2023-05-12T06:21:14;101717.72;;;34.11;23.01
33949;BME280;20229;49.856;19.030;2023-05-12T06:26:28;101730.12;;;35.34;21.95
33949;BME280;20229;49.856;19.030;2023-05-12T06:31:41;101731.15;;;36.17;18.31
33949;BME280;20229;49.856;19.030;2023-05-12T06:36:55;101732.56;;;36.76;20.26
33949;BME280;20229;49.856;19.030;2023-05-12T06:42:10;101715.07;;;37.76;18.19
33949;BME280;20229;49.856;19.030;2023-05-12T06:47:25;101722.64;;;38.24;16.96
33949;BME280;20229;49.856;19.030;2023-05-12T06:52:39;101719.05;;;38.99;18.58
33949;BME280;20229;49.856;19.030;2023-05-12T06:57:53;101717.26;;;39.62;17.90
33949;BME280;20229;49.856;19.030;2023-05-12T07:03:08;101719.09;;;40.30;16.57
33949;BME280;20229;49.856;19.030;2023-05-12T07:08:22;101715.40;;;40.85;16.61
33949;BME280;20229;49.856;19.030;2023-05-12T07:13:36;101708.23;;;41.05;16.19
33949;BME280;20229;49.856;19.030;2023-05-12T07:18:50;101712.18;;;41.97;15.98
33949;BME280;20229;49.856;19.030;2023-05-12T07:24:04;101707.55;;;42.65;15.83
33949;BME280;20229;49.856;19.030;2023-05-12T07:29:18;101725.94;;;42.64;14.65
33949;BME280;20229;49.856;19.030;2023-05-12T07:34:32;101713.38;;;42.70;14.15
33949;BME280;20229;49.856;19.030;2023-05-12T07:39:46;101720.11;;;42.91;14.61
33949;BME280;20229;49.856;19.030;2023-05-12T07:45:00;101716.70;;;42.57;14.18
33949;BME280;20229;49.856;19.030;2023-05-12T07:50:16;101705.99;;;42.85;14.14
33949;BME280;20229;49.856;19.030;2023-05-12T07:55:30;101710.84;;;43.37;14.58
33949;BME280;20229;49.856;19.030;2023-05-12T08:00:45;101712.59;;;43.48;13.84
33949;BME280;20229;49.856;19.030;2023-05-12T08:05:59;101719.85;;;42.98;14.85
33949;BME280;20229;49.856;19.030;2023-05-12T08:11:13;101706.43;;;43.14;14.57
33949;BME280;20229;49.856;19.030;2023-05-12T08:16:27;101717.12;;;43.24;14.21
33949;BME280;20229;49.856;19.030;2023-05-12T08:21:40;101723.90;;;43.07;14.97
33949;BME280;20229;49.856;19.030;2023-05-12T08:26:54;101712.67;;;40.40;15.57
33949;BME280;20229;49.856;19.030;2023-05-12T08:32:08;101710.90;;;36.06;19.00
33949;BME280;20229;49.856;19.030;2023-05-12T08:37:22;101718.53;;;33.85;20.75
33949;BME280;20229;49.856;19.030;2023-05-12T08:42:42;101712.04;;;32.81;21.82
33949;BME280;20229;49.856;19.030;2023-05-12T08:47:57;101714.96;;;30.95;23.58
33949;BME280;20229;49.856;19.030;2023-05-12T08:53:14;101714.73;;;29.99;24.79
33949;BME280;20229;49.856;19.030;2023-05-12T08:58:31;101724.45;;;29.20;26.35
33949;BME280;20229;49.856;19.030;2023-05-12T09:03:45;101720.14;;;29.01;27.31
33949;BME280;20229;49.856;19.030;2023-05-12T09:09:00;101715.96;;;28.08;27.37
33949;BME280;20229;49.856;19.030;2023-05-12T09:14:17;101709.01;;;27.13;28.73
33949;BME280;20229;49.856;19.030;2023-05-12T09:19:36;101718.73;;;26.58;31.01
33949;BME280;20229;49.856;19.030;2023-05-12T09:24:50;101725.63;;;26.46;31.16
33949;BME280;20229;49.856;19.030;2023-05-12T09:34:43;101735.63;;;25.15;32.47
33949;BME280;20229;49.856;19.030;2023-05-12T09:40:12;101739.20;;;24.43;33.26
33949;BME280;20229;49.856;19.030;2023-05-12T09:45:26;101735.40;;;24.24;34.21
33949;BME280;20229;49.856;19.030;2023-05-12T09:50:48;101725.77;;;23.70;34.76
33949;BME280;20229;49.856;19.030;2023-05-12T09:56:04;101719.87;;;23.63;35.48
33949;BME280;20229;49.856;19.030;2023-05-12T10:01:19;101723.12;;;23.40;35.98
33949;BME280;20229;49.856;19.030;2023-05-12T10:06:39;101718.39;;;23.11;35.88
33949;BME280;20229;49.856;19.030;2023-05-12T10:11:57;101715.48;;;23.42;37.69
33949;BME280;20229;49.856;19.030;2023-05-12T10:17:13;101708.73;;;23.44;36.30
33949;BME280;20229;49.856;19.030;2023-05-12T10:22:29;101703.61;;;23.40;35.72
33949;BME280;20229;49.856;19.030;2023-05-12T10:27:44;101701.84;;;23.58;35.66
33949;BME280;20229;49.856;19.030;2023-05-12T10:32:58;101692.56;;;23.09;34.52
33949;BME280;20229;49.856;19.030;2023-05-12T10:38:15;101684.35;;;22.98;34.87
33949;BME280;20229;49.856;19.030;2023-05-12T10:43:40;101696.12;;;23.30;34.75
33949;BME280;20229;49.856;19.030;2023-05-12T10:49:09;101683.38;;;23.76;33.72
33949;BME280;20229;49.856;19.030;2023-05-12T10:54:27;101667.38;;;23.78;32.07
33949;BME280;20229;49.856;19.030;2023-05-12T11:05:10;101682.47;;;23.08;31.36
33949;BME280;20229;49.856;19.030;2023-05-12T11:10:27;101687.66;;;22.91;31.81
33949;BME280;20229;49.856;19.030;2023-05-12T11:15:45;101688.91;;;23.08;30.07
33949;BME280;20229;49.856;19.030;2023-05-12T11:21:08;101688.98;;;22.87;30.29
33949;BME280;20229;49.856;19.030;2023-05-12T11:26:23;101681.43;;;22.59;30.45
33949;BME280;20229;49.856;19.030;2023-05-12T11:31:37;101681.44;;;22.28;31.47
33949;BME280;20229;49.856;19.030;2023-05-12T11:36:52;101679.40;;;22.30;30.88
33949;BME280;20229;49.856;19.030;2023-05-12T11:42:07;101686.56;;;22.63;30.75
33949;BME280;20229;49.856;19.030;2023-05-12T11:47:24;101675.18;;;22.86;31.87
33949;BME280;20229;49.856;19.030;2023-05-12T11:52:38;101681.44;;;23.09;29.25
33949;BME280;20229;49.856;19.030;2023-05-12T11:57:57;101679.00;;;22.85;28.66
33949;BME280;20229;49.856;19.030;2023-05-12T12:03:13;101699.44;;;22.64;29.06
33949;BME280;20229;49.856;19.030;2023-05-12T12:08:27;101703.96;;;22.25;28.78
33949;BME280;20229;49.856;19.030;2023-05-12T12:13:51;101701.25;;;21.93;30.30
33949;BME280;20229;49.856;19.030;2023-05-12T12:19:09;101697.04;;;21.57;30.87
33949;BME280;20229;49.856;19.030;2023-05-12T12:24:23;101686.94;;;21.77;29.48
33949;BME280;20229;49.856;19.030;2023-05-12T12:29:37;101695.66;;;22.14;30.81
33949;BME280;20229;49.856;19.030;2023-05-12T12:34:51;101692.36;;;22.51;29.64
33949;BME280;20229;49.856;19.030;2023-05-12T12:40:07;101704.41;;;22.61;29.83
33949;BME280;20229;49.856;19.030;2023-05-12T12:45:22;101699.20;;;22.77;30.12
33949;BME280;20229;49.856;19.030;2023-05-12T12:50:36;101703.22;;;22.54;30.48
33949;BME280;20229;49.856;19.030;2023-05-12T12:55:50;101691.46;;;22.40;28.83
33949;BME280;20229;49.856;19.030;2023-05-12T13:01:04;101708.52;;;22.26;29.33
33949;BME280;20229;49.856;19.030;2023-05-12T13:06:20;101697.48;;;22.46;31.13
33949;BME280;20229;49.856;19.030;2023-05-12T13:11:33;101708.11;;;22.71;30.19
33949;BME280;20229;49.856;19.030;2023-05-12T13:16:47;101694.83;;;22.84;29.67
33949;BME280;20229;49.856;19.030;2023-05-12T13:22:01;101696.92;;;22.52;29.64
33949;BME280;20229;49.856;19.030;2023-05-12T13:27:15;101701.94;;;22.27;31.08
33949;BME280;20229;49.856;19.030;2023-05-12T13:32:29;101680.40;;;22.29;29.86
33949;BME280;20229;49.856;19.030;2023-05-12T13:37:43;101692.28;;;22.10;29.80
33949;BME280;20229;49.856;19.030;2023-05-12T13:42:57;101687.09;;;21.75;29.47
33949;BME280;20229;49.856;19.030;2023-05-12T13:48:10;101681.07;;;21.70;30.57
33949;BME280;20229;49.856;19.030;2023-05-12T13:53:25;101686.05;;;21.76;29.72
33949;BME280;20229;49.856;19.030;2023-05-12T13:58:39;101683.70;;;21.71;30.41
33949;BME280;20229;49.856;19.030;2023-05-12T14:03:53;101699.34;;;21.93;30.13
33949;BME280;20229;49.856;19.030;2023-05-12T14:09:08;101688.63;;;22.10;30.21
33949;BME280;20229;49.856;19.030;2023-05-12T14:14:23;101677.51;;;22.10;30.84
33949;BME280;20229;49.856;19.030;2023-05-12T14:19:37;101690.47;;;22.00;30.74
33949;BME280;20229;49.856;19.030;2023-05-12T14:24:51;101674.40;;;21.82;31.18
33949;BME280;20229;49.856;19.030;2023-05-12T14:30:06;101682.53;;;21.53;30.82
33949;BME280;20229;49.856;19.030;2023-05-12T14:35:21;101683.75;;;21.39;31.91
33949;BME280;20229;49.856;19.030;2023-05-12T14:40:41;101685.77;;;21.26;32.25
33949;BME280;20229;49.856;19.030;2023-05-12T14:45:55;101695.16;;;21.14;31.88
33949;BME280;20229;49.856;19.030;2023-05-12T14:51:10;101694.59;;;20.88;32.70
33949;BME280;20229;49.856;19.030;2023-05-12T14:56:23;101694.76;;;20.75;33.11
33949;BME280;20229;49.856;19.030;2023-05-12T15:01:37;101700.20;;;20.54;33.53
33949;BME280;20229;49.856;19.030;2023-05-12T15:06:51;101697.02;;;20.47;34.02
33949;BME280;20229;49.856;19.030;2023-05-12T15:12:07;101708.22;;;20.35;34.77
33949;BME280;20229;49.856;19.030;2023-05-12T15:17:20;101702.67;;;20.23;34.66
33949;BME280;20229;49.856;19.030;2023-05-12T15:22:35;101709.87;;;20.26;34.95
33949;BME280;20229;49.856;19.030;2023-05-12T15:27:49;101712.64;;;20.15;34.66
33949;BME280;20229;49.856;19.030;2023-05-12T15:33:03;101707.34;;;20.12;34.44
33949;BME280;20229;49.856;19.030;2023-05-12T15:38:17;101721.30;;;20.10;34.43
33949;BME280;20229;49.856;19.030;2023-05-12T15:43:31;101717.40;;;20.01;34.10
33949;BME280;20229;49.856;19.030;2023-05-12T15:48:47;101697.74;;;19.93;35.25
33949;BME280;20229;49.856;19.030;2023-05-12T15:54:02;101712.34;;;19.95;35.70
33949;BME280;20229;49.856;19.030;2023-05-12T15:59:17;101711.31;;;19.85;35.53
33949;BME280;20229;49.856;19.030;2023-05-12T16:04:32;101708.04;;;19.80;36.65
33949;BME280;20229;49.856;19.030;2023-05-12T16:09:46;101708.99;;;19.68;36.15
33949;BME280;20229;49.856;19.030;2023-05-12T16:15:01;101716.79;;;19.63;36.92
33949;BME280;20229;49.856;19.030;2023-05-12T16:20:17;101719.73;;;19.48;36.54
33949;BME280;20229;49.856;19.030;2023-05-12T16:25:31;101727.11;;;19.37;36.22
33949;BME280;20229;49.856;19.030;2023-05-12T16:30:45;101721.40;;;19.27;36.33
33949;BME280;20229;49.856;19.030;2023-05-12T16:35:58;101732.46;;;19.27;36.79
33949;BME280;20229;49.856;19.030;2023-05-12T16:41:13;101739.80;;;19.15;35.77
33949;BME280;20229;49.856;19.030;2023-05-12T16:46:27;101744.54;;;19.02;36.42
33949;BME280;20229;49.856;19.030;2023-05-12T16:51:41;101746.09;;;18.93;36.79
33949;BME280;20229;49.856;19.030;2023-05-12T16:56:55;101749.89;;;18.79;36.40
33949;BME280;20229;49.856;19.030;2023-05-12T17:02:10;101754.65;;;18.64;37.29
33949;BME280;20229;49.856;19.030;2023-05-12T17:07:24;101757.77;;;18.47;37.00
33949;BME280;20229;49.856;19.030;2023-05-12T17:12:38;101762.10;;;18.38;37.40
33949;BME280;20229;49.856;19.030;2023-05-12T17:17:53;101765.64;;;18.28;37.30
33949;BME280;20229;49.856;19.030;2023-05-12T17:23:07;101762.77;;;18.17;38.33
33949;BME280;20229;49.856;19.030;2023-05-12T17:28:21;101766.52;;;18.03;39.00
33949;BME280;20229;49.856;19.030;2023-05-12T17:33:36;101760.21;;;17.88;39.45
33949;BME280;20229;49.856;19.030;2023-05-12T17:38:50;101776.41;;;17.80;39.47
33949;BME280;20229;49.856;19.030;2023-05-12T17:44:04;101777.05;;;17.71;39.86
33949;BME280;20229;49.856;19.030;2023-05-12T17:49:18;101781.43;;;17.60;40.93
33949;BME280;20229;49.856;19.030;2023-05-12T17:54:32;101786.80;;;17.49;41.26
33949;BME280;20229;49.856;19.030;2023-05-12T17:59:46;101796.91;;;17.36;41.76
33949;BME280;20229;49.856;19.030;2023-05-12T18:05:00;101783.91;;;17.24;43.54
33949;BME280;20229;49.856;19.030;2023-05-12T18:10:14;101794.80;;;17.12;42.84
33949;BME280;20229;49.856;19.030;2023-05-12T18:15:28;101801.91;;;17.02;42.14
33949;BME280;20229;49.856;19.030;2023-05-12T18:20:43;101800.94;;;16.89;42.29
33949;BME280;20229;49.856;19.030;2023-05-12T18:25:58;101801.91;;;16.73;44.56
33949;BME280;20229;49.856;19.030;2023-05-12T18:31:11;101806.86;;;16.54;44.02
33949;BME280;20229;49.856;19.030;2023-05-12T18:36:26;101810.48;;;16.40;43.61
33949;BME280;20229;49.856;19.030;2023-05-12T18:41:41;101812.23;;;16.27;43.79
33949;BME280;20229;49.856;19.030;2023-05-12T18:46:55;101820.48;;;16.13;44.25
33949;BME280;20229;49.856;19.030;2023-05-12T18:52:09;101814.94;;;15.98;43.87
33949;BME280;20229;49.856;19.030;2023-05-12T18:57:23;101825.99;;;15.83;43.66
33949;BME280;20229;49.856;19.030;2023-05-12T19:02:36;101835.81;;;15.72;45.13
33949;BME280;20229;49.856;19.030;2023-05-12T19:07:50;101837.38;;;15.61;44.27
33949;BME280;20229;49.856;19.030;2023-05-12T19:13:04;101843.35;;;15.53;44.91
33949;BME280;20229;49.856;19.030;2023-05-12T19:18:18;101849.84;;;15.36;45.27
33949;BME280;20229;49.856;19.030;2023-05-12T19:23:35;101849.58;;;15.25;46.09
33949;BME280;20229;49.856;19.030;2023-05-12T19:28:49;101862.36;;;15.10;45.70
33949;BME280;20229;49.856;19.030;2023-05-12T19:34:03;101865.27;;;14.91;47.83
33949;BME280;20229;49.856;19.030;2023-05-12T19:39:17;101862.81;;;14.69;47.82
33949;BME280;20229;49.856;19.030;2023-05-12T19:44:31;101868.34;;;14.52;48.69
33949;BME280;20229;49.856;19.030;2023-05-12T19:49:44;101874.02;;;14.31;48.19
33949;BME280;20229;49.856;19.030;2023-05-12T19:54:58;101883.20;;;14.13;50.16
33949;BME280;20229;49.856;19.030;2023-05-12T20:00:13;101895.16;;;13.95;50.75
33949;BME280;20229;49.856;19.030;2023-05-12T20:05:27;101911.45;;;13.80;51.93
33949;BME280;20229;49.856;19.030;2023-05-12T20:10:41;101913.26;;;13.62;52.71
33949;BME280;20229;49.856;19.030;2023-05-12T20:15:54;101909.34;;;13.49;52.89
33949;BME280;20229;49.856;19.030;2023-05-12T20:21:08;101899.88;;;13.37;53.49
33949;BME280;20229;49.856;19.030;2023-05-12T20:26:23;101909.28;;;13.32;52.32
33949;BME280;20229;49.856;19.030;2023-05-12T20:31:37;101895.80;;;13.27;52.43
33949;BME280;20229;49.856;19.030;2023-05-12T20:36:50;101900.80;;;13.18;52.94
33949;BME280;20229;49.856;19.030;2023-05-12T20:42:05;101905.17;;;13.03;53.52
33949;BME280;20229;49.856;19.030;2023-05-12T20:47:22;101905.77;;;12.90;53.72
33949;BME280;20229;49.856;19.030;2023-05-12T20:52:38;101919.29;;;12.75;54.72
33949;BME280;20229;49.856;19.030;2023-05-12T20:57:52;101928.98;;;12.63;56.30
33949;BME280;20229;49.856;19.030;2023-05-12T21:03:06;101932.81;;;12.59;55.80
33949;BME280;20229;49.856;19.030;2023-05-12T21:08:28;101943.77;;;12.59;57.43
33949;BME280;20229;49.856;19.030;2023-05-12T21:13:45;101941.30;;;12.53;58.05
33949;BME280;20229;49.856;19.030;2023-05-12T21:19:00;101953.22;;;12.52;59.63
33949;BME280;20229;49.856;19.030;2023-05-12T21:24:14;101957.99;;;12.47;62.12
33949;BME280;20229;49.856;19.030;2023-05-12T21:29:31;101962.80;;;12.41;61.54
33949;BME280;20229;49.856;19.030;2023-05-12T21:34:45;101959.44;;;12.35;62.61
33949;BME280;20229;49.856;19.030;2023-05-12T21:40:00;101968.66;;;12.32;63.51
33949;BME280;20229;49.856;19.030;2023-05-12T21:45:16;101976.21;;;12.27;64.14
33949;BME280;20229;49.856;19.030;2023-05-12T21:50:33;101974.57;;;12.23;65.62
33949;BME280;20229;49.856;19.030;2023-05-12T21:55:47;101980.29;;;12.17;66.55
33949;BME280;20229;49.856;19.030;2023-05-12T22:01:01;101994.10;;;12.14;68.55
33949;BME280;20229;49.856;19.030;2023-05-12T22:06:15;101986.98;;;12.10;68.86
33949;BME280;20229;49.856;19.030;2023-05-12T22:11:29;101992.51;;;12.08;69.44
33949;BME280;20229;49.856;19.030;2023-05-12T22:16:43;101982.73;;;12.03;70.30
33949;BME280;20229;49.856;19.030;2023-05-12T22:21:57;101990.10;;;12.01;71.63
33949;BME280;20229;49.856;19.030;2023-05-12T22:27:11;101986.68;;;11.95;71.62
33949;BME280;20229;49.856;19.030;2023-05-12T22:32:26;101995.13;;;11.89;72.54
33949;BME280;20229;49.856;19.030;2023-05-12T22:37:40;101991.73;;;11.83;73.81
33949;BME280;20229;49.856;19.030;2023-05-12T22:42:54;101996.55;;;11.76;73.16
33949;BME280;20229;49.856;19.030;2023-05-12T22:48:08;101987.66;;;11.71;74.71
33949;BME280;20229;49.856;19.030;2023-05-12T22:53:22;101994.09;;;11.70;74.37
33949;BME280;20229;49.856;19.030;2023-05-12T22:58:35;101991.59;;;11.64;74.70
33949;BME280;20229;49.856;19.030;2023-05-12T23:03:49;101987.25;;;11.58;75.14
33949;BME280;20229;49.856;19.030;2023-05-12T23:09:03;101992.23;;;11.48;76.41
33949;BME280;20229;49.856;19.030;2023-05-12T23:14:18;101988.99;;;11.37;76.28
33949;BME280;20229;49.856;19.030;2023-05-12T23:19:32;101992.27;;;11.23;76.43
33949;BME280;20229;49.856;19.030;2023-05-12T23:24:46;101994.63;;;11.09;77.04
33949;BME280;20229;49.856;19.030;2023-05-12T23:30:00;101985.27;;;10.93;77.91
33949;BME280;20229;49.856;19.030;2023-05-12T23:35:14;101978.39;;;10.81;77.75
33949;BME280;20229;49.856;19.030;2023-05-12T23:40:28;101991.45;;;10.73;78.17
33949;BME280;20229;49.856;19.030;2023-05-12T23:45:45;101993.57;;;10.65;78.23
33949;BME280;20229;49.856;19.030;2023-05-12T23:50:59;101988.44;;;10.56;78.92
33949;BME280;20229;49.856;19.030;2023-05-12T23:56:13;101996.02;;;10.47;79.07
